createdAt,value
2023-04-30T00:00:16.412Z,5.79
2023-04-30T00:02:18.006Z,5.78
2023-04-30T00:04:19.567Z,5.77
2023-04-30T00:06:21.351Z,5.77
2023-04-30T00:08:22.979Z,5.75
2023-04-30T00:10:24.472Z,5.75
2023-04-30T00:12:26.021Z,5.74
2023-04-30T00:14:27.545Z,5.72
2023-04-30T00:16:29.068Z,5.68
2023-04-30T00:18:30.753Z,5.67
2023-04-30T00:20:32.496Z,5.64
2023-04-30T00:22:34.107Z,5.61
2023-04-30T00:24:35.607Z,5.57
2023-04-30T00:26:37.063Z,5.55
2023-04-30T00:28:38.555Z,5.52
2023-04-30T00:30:40.055Z,5.50
2023-04-30T00:32:41.553Z,5.47
2023-04-30T00:34:43.211Z,5.45
2023-04-30T00:36:44.700Z,5.44
2023-04-30T00:38:46.237Z,5.43
2023-04-30T00:40:47.752Z,5.40
2023-04-30T00:42:49.508Z,5.38
2023-04-30T00:44:51.000Z,5.35
2023-04-30T00:46:52.472Z,5.31
2023-04-30T00:48:54.134Z,5.28
2023-04-30T00:50:56.223Z,5.24
2023-04-30T00:52:59.549Z,5.23
2023-04-30T00:55:01.308Z,5.21
2023-04-30T00:57:05.584Z,5.19
2023-04-30T00:59:07.188Z,5.17
2023-04-30T01:01:08.890Z,5.15
2023-04-30T01:03:10.699Z,5.13
2023-04-30T01:05:12.236Z,5.11
2023-04-30T01:07:13.846Z,5.07
2023-04-30T01:09:16.240Z,5.01
2023-04-30T01:11:26.015Z,4.98
2023-04-30T01:13:30.910Z,4.96
2023-04-30T01:15:42.703Z,4.94
2023-04-30T01:17:56.482Z,4.92
2023-04-30T01:19:59.708Z,4.87
2023-04-30T01:22:04.399Z,4.85
2023-04-30T01:24:35.277Z,4.84
2023-04-30T01:27:06.959Z,4.78
2023-04-30T01:29:09.477Z,4.76
2023-04-30T01:31:14.975Z,4.74
2023-04-30T01:33:16.561Z,4.72
2023-04-30T01:35:18.060Z,4.70
2023-04-30T01:37:31.818Z,4.70
2023-04-30T01:39:48.824Z,4.67
2023-04-30T01:42:02.520Z,4.66
2023-04-30T01:44:22.713Z,4.60
2023-04-30T01:46:31.080Z,4.57
2023-04-30T01:48:56.032Z,4.55
2023-04-30T01:51:23.727Z,4.53
2023-04-30T01:53:33.195Z,4.51
2023-04-30T01:55:51.990Z,4.49
2023-04-30T01:57:59.585Z,4.47
2023-04-30T02:00:01.355Z,4.43
2023-04-30T02:02:03.513Z,4.41
2023-04-30T02:04:05.483Z,4.39
2023-04-30T02:06:07.254Z,4.37
2023-04-30T02:08:08.817Z,4.34
2023-04-30T02:10:12.268Z,4.34
2023-04-30T02:12:13.723Z,4.33
2023-04-30T02:14:15.299Z,4.31
2023-04-30T02:16:16.808Z,4.30
2023-04-30T02:18:18.468Z,4.26
2023-04-30T02:20:20.159Z,4.24
2023-04-30T02:22:21.620Z,4.21
2023-04-30T02:24:23.158Z,4.20
2023-04-30T02:26:24.755Z,4.17
2023-04-30T02:28:26.350Z,4.16
2023-04-30T02:30:27.910Z,4.14
2023-04-30T02:32:29.617Z,4.13
2023-04-30T02:34:31.125Z,4.10
2023-04-30T02:36:36.322Z,4.08
2023-04-30T02:38:37.837Z,4.05
2023-04-30T02:40:42.097Z,4.04
2023-04-30T02:42:43.603Z,4.01
2023-04-30T02:44:45.100Z,4.00
2023-04-30T02:46:46.612Z,4.00
2023-04-30T02:48:48.074Z,3.97
2023-04-30T02:50:49.547Z,3.97
2023-04-30T02:52:50.995Z,3.96
2023-04-30T02:54:52.487Z,3.95
2023-04-30T02:56:54.081Z,3.93
2023-04-30T02:58:55.582Z,3.91
2023-04-30T03:00:57.456Z,3.88
2023-04-30T03:02:59.116Z,3.85
2023-04-30T03:05:00.721Z,3.83
2023-04-30T03:07:03.597Z,3.81
2023-04-30T03:09:05.154Z,3.79
2023-04-30T03:11:06.667Z,3.75
2023-04-30T03:13:08.230Z,3.74
2023-04-30T03:15:10.067Z,3.73
2023-04-30T03:17:11.790Z,3.73
2023-04-30T03:19:13.344Z,3.71
2023-04-30T03:21:15.309Z,3.70
2023-04-30T03:23:16.833Z,3.69
2023-04-30T03:25:18.309Z,3.69
2023-04-30T03:27:19.862Z,3.66
2023-04-30T03:29:21.334Z,3.64
2023-04-30T03:31:22.925Z,3.63
2023-04-30T03:33:24.625Z,3.60
2023-04-30T03:35:26.140Z,3.58
2023-04-30T03:37:27.601Z,3.56
2023-04-30T03:39:29.062Z,3.53
2023-04-30T03:41:30.664Z,3.52
2023-04-30T03:43:32.165Z,3.50
2023-04-30T03:45:33.656Z,3.48
2023-04-30T03:47:37.124Z,3.47
2023-04-30T03:49:39.017Z,3.44
2023-04-30T03:51:41.878Z,3.44
2023-04-30T03:53:43.545Z,3.42
2023-04-30T03:55:45.393Z,3.39
2023-04-30T03:57:46.947Z,3.37
2023-04-30T03:59:48.915Z,3.35
2023-04-30T04:01:51.062Z,3.35
2023-04-30T04:03:52.666Z,3.34
2023-04-30T04:05:54.249Z,3.32
2023-04-30T04:07:55.836Z,3.29
2023-04-30T04:09:57.366Z,3.28
2023-04-30T04:11:58.909Z,3.28
2023-04-30T04:14:01.177Z,3.27
2023-04-30T04:16:03.014Z,3.26
2023-04-30T04:18:06.975Z,3.27
2023-04-30T04:20:09.560Z,3.28
2023-04-30T04:22:12.084Z,3.27
2023-04-30T04:24:13.549Z,3.30
2023-04-30T04:26:15.086Z,3.30
2023-04-30T04:28:19.427Z,3.35
2023-04-30T04:30:20.954Z,3.38
2023-04-30T04:32:22.964Z,3.39
2023-04-30T04:34:24.578Z,3.42
2023-04-30T04:36:30.448Z,3.44
2023-04-30T04:38:31.933Z,3.51
2023-04-30T04:40:35.444Z,3.60
2023-04-30T04:42:38.342Z,3.72
2023-04-30T04:44:41.294Z,3.83
2023-04-30T04:46:44.512Z,3.92
2023-04-30T04:48:46.815Z,4.05
2023-04-30T04:50:48.332Z,4.16
2023-04-30T04:52:49.786Z,4.26
2023-04-30T04:54:51.570Z,4.36
2023-04-30T04:56:53.101Z,4.47
2023-04-30T04:58:54.568Z,4.55
2023-04-30T05:00:57.389Z,4.65
2023-04-30T05:02:58.979Z,4.76
2023-04-30T05:05:01.746Z,4.84
2023-04-30T05:07:03.716Z,4.90
2023-04-30T05:09:08.895Z,4.92
2023-04-30T05:11:10.645Z,4.95
2023-04-30T05:13:12.130Z,4.97
2023-04-30T05:15:13.620Z,5.00
2023-04-30T05:17:15.095Z,5.05
2023-04-30T05:19:16.616Z,5.10
2023-04-30T05:21:18.057Z,5.13
2023-04-30T05:23:19.650Z,5.18
2023-04-30T05:25:21.181Z,5.24
2023-04-30T05:27:22.687Z,5.32
2023-04-30T05:29:24.149Z,5.40
2023-04-30T05:31:25.807Z,5.45
2023-04-30T05:33:27.437Z,5.52
2023-04-30T05:35:30.416Z,5.58
2023-04-30T05:37:31.999Z,5.63
2023-04-30T05:39:33.560Z,5.64
2023-04-30T05:41:35.068Z,5.69
2023-04-30T05:43:36.536Z,5.77
2023-04-30T05:45:38.068Z,5.86
2023-04-30T05:47:39.592Z,5.95
2023-04-30T05:49:41.169Z,6.01
2023-04-30T05:51:42.724Z,6.09
2023-04-30T05:53:44.242Z,6.16
2023-04-30T05:55:45.769Z,6.24
2023-04-30T05:57:47.327Z,6.30
2023-04-30T05:59:48.827Z,6.38
2023-04-30T06:01:50.411Z,6.45
2023-04-30T06:03:52.411Z,6.49
2023-04-30T06:05:54.435Z,6.57
2023-04-30T06:07:55.985Z,6.66
2023-04-30T06:09:57.519Z,6.73
2023-04-30T06:11:59.199Z,6.81
2023-04-30T06:14:01.178Z,6.86
2023-04-30T06:16:02.797Z,6.94
2023-04-30T06:18:04.409Z,6.99
2023-04-30T06:20:07.213Z,7.04
2023-04-30T06:22:08.759Z,7.09
2023-04-30T06:24:10.478Z,7.16
2023-04-30T06:26:14.999Z,7.24
2023-04-30T06:28:16.644Z,7.32
2023-04-30T06:30:18.127Z,7.38
2023-04-30T06:32:19.701Z,7.46
2023-04-30T06:34:21.313Z,7.51
2023-04-30T06:36:22.864Z,7.57
2023-04-30T06:38:24.417Z,7.65
2023-04-30T06:40:26.154Z,7.71
2023-04-30T06:42:27.637Z,7.77
2023-04-30T06:44:29.127Z,7.80
2023-04-30T06:46:31.004Z,7.84
2023-04-30T06:48:32.866Z,7.90
2023-04-30T06:50:34.486Z,7.93
2023-04-30T06:52:35.966Z,7.97
2023-04-30T06:54:37.535Z,8.04
2023-04-30T06:56:39.009Z,8.14
2023-04-30T06:58:40.516Z,8.21
2023-04-30T07:00:42.816Z,8.27
2023-04-30T07:02:44.386Z,8.33
2023-04-30T07:04:45.950Z,8.39
2023-04-30T07:06:47.502Z,8.46
2023-04-30T07:08:48.944Z,8.56
2023-04-30T07:10:50.754Z,8.64
2023-04-30T07:12:52.219Z,8.72
2023-04-30T07:14:53.813Z,8.82
2023-04-30T07:16:55.339Z,8.92
2023-04-30T07:18:56.890Z,9.05
2023-04-30T07:20:58.353Z,9.19
2023-04-30T07:22:59.825Z,9.16
2023-04-30T07:25:01.461Z,9.09
2023-04-30T07:27:03.972Z,9.10
2023-04-30T07:29:05.512Z,9.17
2023-04-30T07:31:07.839Z,9.15
2023-04-30T07:33:09.597Z,9.26
2023-04-30T07:35:11.371Z,9.38
2023-04-30T07:37:13.463Z,9.49
2023-04-30T07:39:14.996Z,9.61
2023-04-30T07:41:16.482Z,9.67
2023-04-30T07:43:17.962Z,9.66
2023-04-30T07:45:19.427Z,9.67
2023-04-30T07:47:20.986Z,9.67
2023-04-30T07:49:22.746Z,9.64
2023-04-30T07:51:24.236Z,9.66
2023-04-30T07:53:26.003Z,9.73
2023-04-30T07:55:27.505Z,9.85
2023-04-30T07:57:28.981Z,9.98
2023-04-30T07:59:30.498Z,10.12
2023-04-30T08:01:32.573Z,10.24
2023-04-30T08:03:34.240Z,10.34
2023-04-30T08:05:35.775Z,10.37
2023-04-30T08:07:37.335Z,10.41
2023-04-30T08:09:38.790Z,10.48
2023-04-30T08:11:40.303Z,10.57
2023-04-30T08:13:42.709Z,10.65
2023-04-30T08:15:44.210Z,10.73
2023-04-30T08:17:45.764Z,10.78
2023-04-30T08:19:47.414Z,10.79
2023-04-30T08:21:48.993Z,10.83
2023-04-30T08:23:50.648Z,10.84
2023-04-30T08:25:52.409Z,10.83
2023-04-30T08:27:53.889Z,10.84
2023-04-30T08:29:55.714Z,10.86
2023-04-30T08:32:02.572Z,10.91
2023-04-30T08:34:04.135Z,10.94
2023-04-30T08:36:05.824Z,10.97
2023-04-30T08:38:07.490Z,10.95
2023-04-30T08:40:12.287Z,10.93
2023-04-30T08:42:15.465Z,10.93
2023-04-30T08:44:18.675Z,10.95
2023-04-30T08:46:21.910Z,11.00
2023-04-30T08:48:24.918Z,10.98
2023-04-30T08:50:27.802Z,10.92
2023-04-30T08:52:31.090Z,10.69
2023-04-30T08:54:33.446Z,10.71
2023-04-30T08:56:35.175Z,10.75
2023-04-30T08:58:37.672Z,10.83
2023-04-30T09:00:40.503Z,10.84
2023-04-30T09:02:43.073Z,10.88
2023-04-30T09:04:45.024Z,10.98
2023-04-30T09:06:46.815Z,11.07
2023-04-30T09:08:49.837Z,11.11
2023-04-30T09:10:51.593Z,11.13
2023-04-30T09:13:09.357Z,11.17
2023-04-30T09:15:12.383Z,11.16
2023-04-30T09:17:21.846Z,11.25
2023-04-30T09:19:27.782Z,11.22
2023-04-30T09:21:33.653Z,11.27
2023-04-30T09:23:35.329Z,11.35
2023-04-30T09:25:41.703Z,11.38
2023-04-30T09:27:43.799Z,11.40
2023-04-30T09:29:46.306Z,11.42
2023-04-30T09:31:47.972Z,11.42
2023-04-30T09:33:49.551Z,11.43
2023-04-30T09:35:51.069Z,11.39
2023-04-30T09:37:52.614Z,11.46
2023-04-30T09:39:55.356Z,11.50
2023-04-30T09:42:10.693Z,11.53
2023-04-30T09:44:28.539Z,11.52
2023-04-30T09:46:37.257Z,11.42
2023-04-30T09:48:41.735Z,11.55
2023-04-30T09:50:44.936Z,11.64
2023-04-30T09:52:53.810Z,11.74
2023-04-30T09:54:55.408Z,11.82
2023-04-30T09:56:59.315Z,11.91
2023-04-30T09:59:04.496Z,12.01
2023-04-30T10:01:07.730Z,11.94
2023-04-30T10:03:11.228Z,11.81
2023-04-30T10:05:12.879Z,11.84
2023-04-30T10:07:22.224Z,11.89
2023-04-30T10:09:29.712Z,11.93
2023-04-30T10:11:34.104Z,12.09
2023-04-30T10:13:43.134Z,12.21
2023-04-30T10:15:49.992Z,12.34
2023-04-30T10:18:07.135Z,12.45
2023-04-30T10:20:10.602Z,12.57
2023-04-30T10:22:12.343Z,12.67
2023-04-30T10:24:14.917Z,12.83
2023-04-30T10:26:18.108Z,12.98
2023-04-30T10:28:20.156Z,13.11
2023-04-30T10:30:22.896Z,13.20
2023-04-30T10:32:32.133Z,13.25
2023-04-30T10:34:55.812Z,13.41
2023-04-30T10:37:25.823Z,13.33
2023-04-30T10:39:28.824Z,13.37
2023-04-30T10:41:31.251Z,13.52
2023-04-30T10:43:35.500Z,13.70
2023-04-30T10:45:38.950Z,13.87
2023-04-30T10:47:43.319Z,14.21
2023-04-30T10:49:49.419Z,14.56
2023-04-30T10:51:55.088Z,14.90
2023-04-30T10:53:57.065Z,15.24
2023-04-30T10:56:07.277Z,15.45
2023-04-30T10:58:27.644Z,15.79
2023-04-30T11:00:29.856Z,16.01
2023-04-30T11:02:41.370Z,16.20
2023-04-30T11:05:07.821Z,16.56
2023-04-30T11:07:10.651Z,16.99
2023-04-30T11:09:12.173Z,17.28
2023-04-30T11:11:23.884Z,17.54
2023-04-30T11:13:26.757Z,17.68
2023-04-30T11:15:34.567Z,18.09
2023-04-30T11:17:38.159Z,18.24
2023-04-30T11:19:47.624Z,18.02
2023-04-30T11:22:15.755Z,18.17
2023-04-30T11:24:19.820Z,18.33
2023-04-30T11:26:21.337Z,18.60
2023-04-30T11:28:27.683Z,18.97
2023-04-30T11:30:29.770Z,19.43
2023-04-30T11:32:36.145Z,19.68
2023-04-30T11:34:37.960Z,19.84
2023-04-30T11:36:41.532Z,19.95
2023-04-30T11:38:43.310Z,20.24
2023-04-30T11:40:45.140Z,20.47
2023-04-30T11:42:48.372Z,20.76
2023-04-30T11:44:49.847Z,20.87
2023-04-30T11:46:51.481Z,21.15
2023-04-30T11:48:53.045Z,21.40
2023-04-30T11:50:54.530Z,20.97
2023-04-30T11:52:57.586Z,21.07
2023-04-30T11:55:00.369Z,20.75
2023-04-30T11:57:04.327Z,20.96
2023-04-30T11:59:13.188Z,21.36
2023-04-30T12:01:15.558Z,21.48
2023-04-30T12:03:17.444Z,21.68
2023-04-30T12:05:21.739Z,21.93
2023-04-30T12:07:23.373Z,22.06
2023-04-30T12:09:25.962Z,22.15
2023-04-30T12:11:29.297Z,21.77
2023-04-30T12:13:34.045Z,21.68
2023-04-30T12:15:35.611Z,21.74
2023-04-30T12:17:37.178Z,21.81
2023-04-30T12:19:38.748Z,21.84
2023-04-30T12:21:42.186Z,21.41
2023-04-30T12:23:45.145Z,21.17
2023-04-30T12:25:47.697Z,21.17
2023-04-30T12:27:52.729Z,21.15
2023-04-30T12:29:56.575Z,21.10
2023-04-30T12:31:59.420Z,21.09
2023-04-30T12:34:08.698Z,21.05
2023-04-30T12:36:10.943Z,21.01
2023-04-30T12:38:17.272Z,20.96
2023-04-30T12:40:20.746Z,20.88
2023-04-30T12:42:22.267Z,20.86
2023-04-30T12:44:25.420Z,20.74
2023-04-30T12:46:27.998Z,20.71
2023-04-30T12:48:29.587Z,20.58
2023-04-30T12:50:31.117Z,20.04
2023-04-30T12:52:32.785Z,19.10
2023-04-30T12:54:35.907Z,18.75
2023-04-30T12:56:37.688Z,18.58
2023-04-30T12:58:39.949Z,19.00
2023-04-30T13:00:49.799Z,19.58
2023-04-30T13:02:51.303Z,19.86
2023-04-30T13:04:53.853Z,20.16
2023-04-30T13:06:55.302Z,20.32
2023-04-30T13:08:58.868Z,20.50
2023-04-30T13:11:00.667Z,20.63
2023-04-30T13:13:02.320Z,20.78
2023-04-30T13:15:04.093Z,20.66
2023-04-30T13:17:07.356Z,20.60
2023-04-30T13:19:08.896Z,20.64
2023-04-30T13:21:10.759Z,20.61
2023-04-30T13:23:12.446Z,20.55
2023-04-30T13:25:13.943Z,20.36
2023-04-30T13:27:15.451Z,20.09
2023-04-30T13:29:17.040Z,19.95
2023-04-30T13:31:18.619Z,19.92
2023-04-30T13:33:20.904Z,19.83
2023-04-30T13:35:22.768Z,19.90
2023-04-30T13:37:24.452Z,19.81
2023-04-30T13:39:25.999Z,19.70
2023-04-30T13:41:27.549Z,19.53
2023-04-30T13:43:29.307Z,19.45
2023-04-30T13:45:30.866Z,19.49
2023-04-30T13:47:32.462Z,19.46
2023-04-30T13:49:36.592Z,19.39
2023-04-30T13:51:38.455Z,19.22
2023-04-30T13:53:40.464Z,19.27
2023-04-30T13:55:42.093Z,19.45
2023-04-30T13:57:43.760Z,19.43
2023-04-30T13:59:45.341Z,19.27
2023-04-30T14:01:47.069Z,19.20
2023-04-30T14:03:48.665Z,19.05
2023-04-30T14:05:50.466Z,19.07
2023-04-30T14:07:51.934Z,19.06
2023-04-30T14:09:53.700Z,19.07
2023-04-30T14:11:58.963Z,18.79
2023-04-30T14:14:00.461Z,18.88
2023-04-30T14:16:02.110Z,19.00
2023-04-30T14:18:03.872Z,19.16
2023-04-30T14:20:06.111Z,19.20
2023-04-30T14:22:07.579Z,19.13
2023-04-30T14:24:09.356Z,19.11
2023-04-30T14:26:10.859Z,19.20
2023-04-30T14:28:12.319Z,19.29
2023-04-30T14:30:13.832Z,19.28
2023-04-30T14:32:15.441Z,19.21
2023-04-30T14:34:17.346Z,19.26
2023-04-30T14:36:18.986Z,19.32
2023-04-30T14:38:20.745Z,19.37
2023-04-30T14:40:22.245Z,19.44
2023-04-30T14:42:23.779Z,19.37
2023-04-30T14:44:26.456Z,19.17
2023-04-30T14:46:28.150Z,19.11
2023-04-30T14:48:29.652Z,19.13
2023-04-30T14:50:31.465Z,19.07
2023-04-30T14:52:32.921Z,19.14
2023-04-30T14:54:34.494Z,19.05
2023-04-30T14:56:36.012Z,19.02
2023-04-30T14:58:38.118Z,18.97
2023-04-30T15:00:39.574Z,19.00
2023-04-30T15:02:41.312Z,19.02
2023-04-30T15:04:46.063Z,18.90
2023-04-30T15:06:47.896Z,18.88
2023-04-30T15:08:49.785Z,19.05
2023-04-30T15:10:51.255Z,19.25
2023-04-30T15:12:53.821Z,19.41
2023-04-30T15:14:55.368Z,19.55
2023-04-30T15:16:56.991Z,19.58
2023-04-30T15:18:59.370Z,19.59
2023-04-30T15:21:02.040Z,19.51
2023-04-30T15:23:03.799Z,19.41
2023-04-30T15:25:05.797Z,19.51
2023-04-30T15:27:07.288Z,19.64
2023-04-30T15:29:10.532Z,19.77
2023-04-30T15:31:12.182Z,19.83
2023-04-30T15:33:13.807Z,19.81
2023-04-30T15:35:15.450Z,19.82
2023-04-30T15:37:16.923Z,19.75
2023-04-30T15:39:19.130Z,19.72
2023-04-30T15:41:21.638Z,19.74
2023-04-30T15:43:23.209Z,19.74
2023-04-30T15:45:25.360Z,19.68
2023-04-30T15:47:26.915Z,19.69
2023-04-30T15:49:28.673Z,19.51
2023-04-30T15:51:30.268Z,19.49
2023-04-30T15:53:31.733Z,19.56
2023-04-30T15:55:33.356Z,19.64
2023-04-30T15:57:34.827Z,19.64
2023-04-30T15:59:36.284Z,19.45
2023-04-30T16:01:37.901Z,19.29
2023-04-30T16:03:39.906Z,19.27
2023-04-30T16:05:41.749Z,19.33
2023-04-30T16:07:44.667Z,19.37
2023-04-30T16:09:48.999Z,19.39
2023-04-30T16:11:50.894Z,19.32
2023-04-30T16:13:52.908Z,19.21
2023-04-30T16:15:54.369Z,18.84
2023-04-30T16:17:56.758Z,18.53
2023-04-30T16:19:59.988Z,18.47
2023-04-30T16:22:01.789Z,18.66
2023-04-30T16:24:03.294Z,18.77
2023-04-30T16:26:04.880Z,18.82
2023-04-30T16:28:06.435Z,18.79
2023-04-30T16:30:09.285Z,18.81
2023-04-30T16:32:11.696Z,18.81
2023-04-30T16:34:13.709Z,18.85
2023-04-30T16:36:15.245Z,18.82
2023-04-30T16:38:16.727Z,18.75
2023-04-30T16:40:18.344Z,18.70
2023-04-30T16:42:19.801Z,18.68
2023-04-30T16:44:22.540Z,18.61
2023-04-30T16:46:24.081Z,18.55
2023-04-30T16:48:25.577Z,18.46
2023-04-30T16:50:27.314Z,18.49
2023-04-30T16:52:29.660Z,18.58
2023-04-30T16:54:31.177Z,18.65
2023-04-30T16:56:32.625Z,18.72
2023-04-30T16:58:34.707Z,18.65
2023-04-30T17:00:36.696Z,18.67
2023-04-30T17:02:39.882Z,18.77
2023-04-30T17:04:41.461Z,18.83
2023-04-30T17:06:43.097Z,18.83
2023-04-30T17:08:44.697Z,18.87
2023-04-30T17:10:47.627Z,18.87
2023-04-30T17:12:49.178Z,18.88
2023-04-30T17:14:52.096Z,18.91
2023-04-30T17:16:53.618Z,18.97
2023-04-30T17:18:55.095Z,19.04
2023-04-30T17:20:56.800Z,18.93
2023-04-30T17:22:58.347Z,18.87
2023-04-30T17:25:00.636Z,18.90
2023-04-30T17:27:05.584Z,18.97
2023-04-30T17:29:07.365Z,18.91
2023-04-30T17:31:09.389Z,18.75
2023-04-30T17:33:11.022Z,18.76
2023-04-30T17:35:12.536Z,18.86
2023-04-30T17:37:14.035Z,18.92
2023-04-30T17:39:16.273Z,18.90
2023-04-30T17:41:18.611Z,18.85
2023-04-30T17:43:20.291Z,18.70
2023-04-30T17:45:21.831Z,18.49
2023-04-30T17:47:23.539Z,18.27
2023-04-30T17:49:25.804Z,18.03
2023-04-30T17:51:29.207Z,17.90
2023-04-30T17:53:30.694Z,17.75
2023-04-30T17:55:32.756Z,17.65
2023-04-30T17:57:34.841Z,17.51
2023-04-30T17:59:38.795Z,17.32
2023-04-30T18:01:40.562Z,17.16
2023-04-30T18:03:42.820Z,17.01
2023-04-30T18:05:45.179Z,16.88
2023-04-30T18:07:47.609Z,16.80
2023-04-30T18:09:49.174Z,16.73
2023-04-30T18:11:51.629Z,16.61
2023-04-30T18:13:53.150Z,16.47
2023-04-30T18:15:54.722Z,16.35
2023-04-30T18:17:56.376Z,16.25
2023-04-30T18:19:58.198Z,16.15
2023-04-30T18:22:00.519Z,16.04
2023-04-30T18:24:02.703Z,15.92
2023-04-30T18:26:04.775Z,15.81
2023-04-30T18:28:08.608Z,15.68
2023-04-30T18:30:11.553Z,15.56
2023-04-30T18:32:13.150Z,15.46
2023-04-30T18:34:14.953Z,15.36
2023-04-30T18:36:16.876Z,15.29
2023-04-30T18:38:18.644Z,15.17
2023-04-30T18:40:20.489Z,15.06
2023-04-30T18:42:22.447Z,14.98
2023-04-30T18:44:33.943Z,14.91
2023-04-30T18:46:36.164Z,14.83
2023-04-30T18:48:38.295Z,14.75
2023-04-30T18:50:42.567Z,14.64
2023-04-30T18:52:45.186Z,14.52
2023-04-30T18:54:46.926Z,14.41
2023-04-30T18:56:48.411Z,14.30
2023-04-30T18:58:49.997Z,14.20
2023-04-30T19:00:51.536Z,14.10
2023-04-30T19:02:53.181Z,14.00
2023-04-30T19:04:54.761Z,13.92
2023-04-30T19:06:56.246Z,13.83
2023-04-30T19:08:59.647Z,13.73
2023-04-30T19:11:01.157Z,13.65
2023-04-30T19:13:02.683Z,13.57
2023-04-30T19:15:04.648Z,13.48
2023-04-30T19:17:06.591Z,13.40
2023-04-30T19:19:08.234Z,13.31
2023-04-30T19:21:09.745Z,13.27
2023-04-30T19:23:11.208Z,13.20
2023-04-30T19:25:12.752Z,13.12
2023-04-30T19:27:14.234Z,13.03
2023-04-30T19:29:15.695Z,12.96
2023-04-30T19:31:17.268Z,12.89
2023-04-30T19:33:18.852Z,12.81
2023-04-30T19:35:20.387Z,12.75
2023-04-30T19:37:21.979Z,12.66
2023-04-30T19:39:29.191Z,12.60
2023-04-30T19:41:30.664Z,12.52
2023-04-30T19:43:32.151Z,12.44
2023-04-30T19:45:33.590Z,12.37
2023-04-30T19:47:36.178Z,12.30
2023-04-30T19:49:37.676Z,12.23
2023-04-30T19:51:39.595Z,12.16
2023-04-30T19:53:41.190Z,12.10
2023-04-30T19:55:43.357Z,12.03
2023-04-30T19:57:44.921Z,11.96
2023-04-30T19:59:47.292Z,11.90
2023-04-30T20:01:48.918Z,11.84
2023-04-30T20:03:50.625Z,11.77
2023-04-30T20:05:52.484Z,11.72
2023-04-30T20:07:53.928Z,11.69
2023-04-30T20:09:55.682Z,11.61
2023-04-30T20:11:57.747Z,11.56
2023-04-30T20:13:59.292Z,11.52
2023-04-30T20:16:01.352Z,11.52
2023-04-30T20:18:03.606Z,11.51
2023-04-30T20:20:05.730Z,11.53
2023-04-30T20:22:12.990Z,11.51
2023-04-30T20:24:14.572Z,11.50
2023-04-30T20:26:16.025Z,11.46
2023-04-30T20:28:18.202Z,11.38
2023-04-30T20:30:20.871Z,11.34
2023-04-30T20:32:22.480Z,11.31
2023-04-30T20:34:24.118Z,11.31
2023-04-30T20:36:25.544Z,11.27
2023-04-30T20:38:27.028Z,11.23
2023-04-30T20:40:28.474Z,11.21
2023-04-30T20:42:30.554Z,11.13
2023-04-30T20:44:33.545Z,11.10
2023-04-30T20:46:36.219Z,11.05
2023-04-30T20:48:37.712Z,10.99
2023-04-30T20:50:39.282Z,10.94
2023-04-30T20:52:41.564Z,10.93
2023-04-30T20:54:43.517Z,10.89
2023-04-30T20:56:46.822Z,10.86
2023-04-30T20:58:48.625Z,10.83
2023-04-30T21:00:50.199Z,10.79
2023-04-30T21:02:53.903Z,10.73
2023-04-30T21:04:55.527Z,10.67
2023-04-30T21:06:57.194Z,10.64
2023-04-30T21:08:58.757Z,10.60
2023-04-30T21:11:00.214Z,10.56
2023-04-30T21:13:05.800Z,10.52
2023-04-30T21:15:09.009Z,10.45
2023-04-30T21:17:10.627Z,10.41
2023-04-30T21:19:12.550Z,10.36
2023-04-30T21:21:14.473Z,10.31
2023-04-30T21:23:15.933Z,10.28
2023-04-30T21:25:17.475Z,10.27
2023-04-30T21:27:18.949Z,10.25
2023-04-30T21:29:20.394Z,10.22
2023-04-30T21:31:23.730Z,10.17
2023-04-30T21:33:25.352Z,10.15
2023-04-30T21:35:29.993Z,10.12
2023-04-30T21:37:31.466Z,10.08
2023-04-30T21:39:32.954Z,10.06
2023-04-30T21:41:34.475Z,10.05
2023-04-30T21:43:37.004Z,10.02
2023-04-30T21:45:38.562Z,9.99
2023-04-30T21:47:40.156Z,9.94
2023-04-30T21:49:43.134Z,9.88
2023-04-30T21:51:44.630Z,9.84
2023-04-30T21:53:46.453Z,9.78
2023-04-30T21:55:49.411Z,9.78
2023-04-30T21:57:51.222Z,9.75
2023-04-30T21:59:52.812Z,9.70
2023-04-30T22:01:54.432Z,9.69
2023-04-30T22:03:57.143Z,9.65
2023-04-30T22:05:59.043Z,9.62
2023-04-30T22:08:00.723Z,9.58
2023-04-30T22:10:05.551Z,9.53
2023-04-30T22:12:08.393Z,9.50
2023-04-30T22:14:09.863Z,9.47
2023-04-30T22:16:11.577Z,9.41
2023-04-30T22:18:13.348Z,9.40
2023-04-30T22:20:14.981Z,9.36
2023-04-30T22:22:16.725Z,9.30
2023-04-30T22:24:18.271Z,9.30
2023-04-30T22:26:19.831Z,9.26
2023-04-30T22:28:22.442Z,9.24
2023-04-30T22:30:24.232Z,9.22
2023-04-30T22:32:26.308Z,9.19
2023-04-30T22:34:27.828Z,9.15
2023-04-30T22:36:29.318Z,9.17
2023-04-30T22:38:31.434Z,9.13
2023-04-30T22:40:34.280Z,9.09
2023-04-30T22:42:35.916Z,9.05
2023-04-30T22:44:37.836Z,9.02
2023-04-30T22:46:40.683Z,8.98
2023-04-30T22:48:42.900Z,8.95
2023-04-30T22:50:45.260Z,8.94
2023-04-30T22:52:47.651Z,8.89
2023-04-30T22:54:49.291Z,8.88
2023-04-30T22:56:50.788Z,8.84
2023-04-30T22:58:52.298Z,8.81
2023-04-30T23:00:53.811Z,8.78
2023-04-30T23:02:55.645Z,8.77
2023-04-30T23:04:57.209Z,8.73
2023-04-30T23:06:58.759Z,8.72
2023-04-30T23:09:00.242Z,8.69
2023-04-30T23:11:03.027Z,8.66
2023-04-30T23:13:04.494Z,8.61
2023-04-30T23:15:06.323Z,8.58
2023-04-30T23:17:07.858Z,8.54
2023-04-30T23:19:09.783Z,8.53
2023-04-30T23:21:11.246Z,8.48
2023-04-30T23:23:12.726Z,8.45
2023-04-30T23:25:14.264Z,8.41
2023-04-30T23:27:16.271Z,8.39
2023-04-30T23:29:18.106Z,8.34
2023-04-30T23:31:19.612Z,8.33
2023-04-30T23:33:21.568Z,8.29
2023-04-30T23:35:23.061Z,8.24
2023-04-30T23:37:24.544Z,8.21
2023-04-30T23:39:26.022Z,8.20
2023-04-30T23:41:27.516Z,8.18
2023-04-30T23:43:29.787Z,8.17
2023-04-30T23:45:31.233Z,8.16
2023-04-30T23:47:36.173Z,8.16
2023-04-30T23:49:37.830Z,8.14
2023-04-30T23:51:39.311Z,8.13
2023-04-30T23:53:40.775Z,8.10
2023-04-30T23:55:42.323Z,8.08
2023-04-30T23:57:43.789Z,8.04
2023-04-30T23:59:45.456Z,8.03
